Time;durP1;ratioP1;P1;durP2;ratioP2;P2;SDS_P1;SDS_P2;PMS_P1;PMS_P2;Temp;Humidity;BMP_temperature;BMP_pressure;BME280_temperature;BME280_humidity;BME280_pressure;Samples;Min_cycle;Max_cycle;Signal;HPM_P1;HPM_P2
2024/03/06 00:01:47;;;;;;;13.05;2.22;;;;;;;8.96;100.00;100392.00;5129647;27;20043;-64
2024/03/06 00:04:13;;;;;;;7.75;2.00;;;;;;;8.96;100.00;100392.00;5129992;27;20038;-64
2024/03/06 00:06:38;;;;;;;8.23;1.70;;;;;;;8.99;100.00;100396.91;5130954;27;20470;-65
2024/03/06 00:09:04;;;;;;;9.07;1.60;;;;;;;9.03;100.00;100399.22;5130911;27;20031;-65
2024/03/06 00:11:30;;;;;;;9.40;2.10;;;;;;;9.07;100.00;100398.81;5128415;27;20089;-64
2024/03/06 00:13:55;;;;;;;5.45;1.13;;;;;;;9.10;100.00;100397.72;5131159;27;20409;-64
2024/03/06 00:16:21;;;;;;;11.50;1.75;;;;;;;9.10;100.00;100402.94;5122607;27;20057;-66
2024/03/06 00:18:46;;;;;;;12.63;2.00;;;;;;;9.12;100.00;100401.00;5126973;27;20118;-64
2024/03/06 00:21:12;;;;;;;9.25;1.92;;;;;;;9.14;100.00;100404.31;5126795;27;20113;-65
2024/03/06 00:23:38;;;;;;;12.52;2.40;;;;;;;9.18;100.00;100400.47;5111886;27;20200;-65
2024/03/06 00:26:04;;;;;;;11.13;2.17;;;;;;;9.20;100.00;100404.56;5124373;27;20027;-65
2024/03/06 00:28:29;;;;;;;8.18;1.60;;;;;;;9.20;100.00;100408.97;5130608;27;20390;-64
2024/03/06 00:30:55;;;;;;;7.13;2.78;;;;;;;9.21;100.00;100402.81;5129516;27;20039;-65
2024/03/06 00:33:20;;;;;;;9.52;1.88;;;;;;;9.19;100.00;100399.50;5126563;27;20031;-64
2024/03/06 00:35:46;;;;;;;11.32;1.92;;;;;;;9.21;100.00;100401.03;5127254;27;20031;-64
2024/03/06 00:38:11;;;;;;;6.45;1.58;;;;;;;9.25;100.00;100401.56;5126329;27;20038;-64
2024/03/06 00:40:38;;;;;;;4.13;1.63;;;;;;;9.28;100.00;100404.72;5123315;27;20122;-65
2024/03/06 00:43:04;;;;;;;9.80;1.27;;;;;;;9.34;100.00;100399.94;5123753;27;20109;-65
2024/03/06 00:45:30;;;;;;;5.72;1.38;;;;;;;9.37;100.00;100410.06;5129719;27;20027;-64
2024/03/06 00:47:55;;;;;;;7.88;1.70;;;;;;;9.42;100.00;100405.25;5127063;27;20035;-64
2024/03/06 00:50:21;;;;;;;8.25;1.35;;;;;;;9.45;100.00;100403.19;5130481;27;20027;-65
2024/03/06 00:52:48;;;;;;;5.35;2.33;;;;;;;9.50;100.00;100407.97;5128478;27;20039;-64
2024/03/06 00:55:14;;;;;;;7.53;2.40;;;;;;;9.53;100.00;100399.88;5106433;27;20050;-65
2024/03/06 00:57:39;;;;;;;4.72;1.73;;;;;;;9.54;100.00;100402.34;5125384;27;20062;-65
2024/03/06 01:00:10;;;;;;;4.30;1.70;;;;;;;9.57;100.00;100409.88;5128487;27;20043;-64
2024/03/06 01:02:39;;;;;;;7.25;1.83;;;;;;;9.59;100.00;100402.75;5126246;27;20034;-64
2024/03/06 01:05:06;;;;;;;11.07;2.03;;;;;;;9.62;100.00;100409.47;5125930;27;20098;-65
2024/03/06 01:07:33;;;;;;;4.20;1.10;;;;;;;9.62;100.00;100418.09;5127287;27;20031;-65
2024/03/06 01:09:58;;;;;;;6.68;1.25;;;;;;;9.64;100.00;100407.53;5129887;27;20043;-65
2024/03/06 01:12:24;;;;;;;4.53;1.10;;;;;;;9.70;100.00;100406.16;5123169;27;20027;-65
2024/03/06 01:14:50;;;;;;;7.13;1.30;;;;;;;9.71;100.00;100408.63;5127410;27;20092;-64
2024/03/06 01:17:15;;;;;;;4.25;1.30;;;;;;;9.72;100.00;100414.66;5123361;27;20031;-64
2024/03/06 01:19:43;;;;;;;14.30;2.92;;;;;;;9.71;100.00;100419.03;5126351;27;20042;-64
2024/03/06 01:22:09;;;;;;;6.60;1.77;;;;;;;9.69;100.00;100415.75;5123169;27;20084;-66
2024/03/06 01:24:34;;;;;;;4.43;1.17;;;;;;;9.68;100.00;100408.09;5127719;27;20031;-64
2024/03/06 01:27:02;;;;;;;9.15;1.23;;;;;;;9.69;100.00;100404.53;5128843;27;20030;-64
2024/03/06 01:29:28;;;;;;;12.43;2.95;;;;;;;9.66;100.00;100405.63;5127391;27;20051;-65
2024/03/06 01:31:53;;;;;;;12.85;3.58;;;;;;;9.64;100.00;100408.38;5129060;27;20065;-64
2024/03/06 01:34:19;;;;;;;3.83;1.85;;;;;;;9.65;100.00;100403.97;5129284;27;20062;-64
2024/03/06 01:36:44;;;;;;;4.95;2.20;;;;;;;9.70;100.00;100406.16;5128394;27;20039;-64
2024/03/06 01:39:10;;;;;;;10.95;2.17;;;;;;;9.70;100.00;100406.97;5127284;27;20027;-65
2024/03/06 01:41:35;;;;;;;9.88;2.60;;;;;;;9.71;100.00;100406.03;5127400;27;20097;-64
2024/03/06 01:44:01;;;;;;;9.77;2.10;;;;;;;9.70;100.00;100406.97;5126688;27;20046;-65
2024/03/06 01:46:27;;;;;;;6.07;2.20;;;;;;;9.71;100.00;100411.22;5129365;27;20032;-64
2024/03/06 01:48:53;;;;;;;5.20;1.40;;;;;;;9.72;100.00;100410.25;5130261;27;20543;-64
2024/03/06 01:51:19;;;;;;;4.40;1.40;;;;;;;9.75;100.00;100409.16;5128235;27;20046;-64
2024/03/06 01:53:44;;;;;;;7.90;1.10;;;;;;;9.77;100.00;100417.66;5131139;27;20043;-64
2024/03/06 01:56:11;;;;;;;4.30;1.27;;;;;;;9.74;100.00;100417.94;5129577;27;20059;-64
2024/03/06 01:58:38;;;;;;;6.03;1.80;;;;;;;9.75;100.00;100419.56;5130605;27;20083;-64
2024/03/06 02:01:04;;;;;;;7.57;1.73;;;;;;;9.78;100.00;100421.91;5123674;27;20679;-64
2024/03/06 02:03:32;;;;;;;1.95;0.73;;;;;;;9.76;100.00;100421.22;5126300;27;20027;-64
2024/03/06 02:06:00;;;;;;;7.68;1.35;;;;;;;9.80;100.00;100425.19;5128286;27;20488;-64
2024/03/06 02:08:25;;;;;;;9.50;1.65;;;;;;;9.81;100.00;100419.03;5126965;27;20114;-65
2024/03/06 02:10:51;;;;;;;5.38;1.35;;;;;;;9.82;100.00;100424.09;5126814;27;20624;-65
2024/03/06 02:13:18;;;;;;;3.33;1.00;;;;;;;9.82;100.00;100428.47;5126888;27;20039;-64
2024/03/06 02:15:45;;;;;;;4.57;1.10;;;;;;;9.94;100.00;100422.94;5127290;27;20031;-65
2024/03/06 02:18:10;;;;;;;6.35;0.95;;;;;;;9.99;100.00;100432.91;5125814;27;20084;-65
2024/03/06 02:20:39;;;;;;;4.53;1.25;;;;;;;9.96;100.00;100431.41;5123623;27;20539;-65
2024/03/06 02:23:05;;;;;;;3.55;1.10;;;;;;;9.89;100.00;100427.75;5126534;27;20035;-65
2024/03/06 02:25:30;;;;;;;4.40;1.02;;;;;;;9.84;100.00;100429.97;5127914;27;20023;-65
2024/03/06 02:27:56;;;;;;;5.18;1.20;;;;;;;9.77;100.00;100435.88;5127608;27;20027;-65
2024/03/06 02:30:21;;;;;;;5.05;1.30;;;;;;;9.71;100.00;100432.03;5126441;27;20042;-65
2024/03/06 02:32:47;;;;;;;6.18;1.60;;;;;;;9.73;100.00;100434.50;5126255;27;20038;-65
2024/03/06 02:35:13;;;;;;;6.65;1.35;;;;;;;9.69;100.00;100441.75;5125565;27;20114;-65
2024/03/06 02:37:41;;;;;;;2.35;1.15;;;;;;;9.65;100.00;100446.41;5125839;27;20199;-65
2024/03/06 02:40:09;;;;;;;6.70;1.45;;;;;;;9.61;100.00;100447.66;5127036;27;20077;-65
2024/03/06 02:42:36;;;;;;;6.30;1.35;;;;;;;9.58;100.00;100442.72;5128096;27;20063;-65
2024/03/06 02:45:01;;;;;;;4.80;2.00;;;;;;;9.53;100.00;100437.13;5126175;27;20067;-65
2024/03/06 02:47:26;;;;;;;6.28;1.50;;;;;;;9.41;100.00;100433.03;5128024;27;20027;-65
2024/03/06 02:49:52;;;;;;;3.28;1.30;;;;;;;9.28;100.00;100429.91;5131656;27;20046;-65
2024/03/06 02:52:17;;;;;;;4.28;1.85;;;;;;;9.20;100.00;100438.38;5127994;27;20027;-65
2024/03/06 02:54:43;;;;;;;6.82;1.60;;;;;;;9.16;100.00;100433.56;5128612;27;20115;-65
2024/03/06 02:57:08;;;;;;;11.98;1.83;;;;;;;9.16;100.00;100428.38;5131259;27;20560;-65
2024/03/06 02:59:34;;;;;;;6.65;2.20;;;;;;;9.07;100.00;100434.38;5128716;27;20035;-65
2024/03/06 03:02:00;;;;;;;5.40;1.58;;;;;;;9.05;100.00;100425.91;5130961;27;20121;-65
2024/03/06 03:04:26;;;;;;;4.82;1.63;;;;;;;9.03;100.00;100430.41;5126176;27;20462;-65
2024/03/06 03:06:51;;;;;;;6.80;1.75;;;;;;;9.02;100.00;100433.97;5130249;27;20490;-65
2024/03/06 03:09:17;;;;;;;5.80;2.13;;;;;;;8.99;100.00;100432.47;5125652;27;20050;-65
2024/03/06 03:11:44;;;;;;;5.65;2.28;;;;;;;9.02;100.00;100431.38;5124187;27;20031;-65
2024/03/06 03:14:09;;;;;;;4.72;2.17;;;;;;;9.04;100.00;100429.47;5120545;27;20064;-65
2024/03/06 03:16:35;;;;;;;6.10;2.08;;;;;;;9.02;100.00;100432.19;5116053;27;20039;-65
2024/03/06 03:19:01;;;;;;;5.55;1.75;;;;;;;9.02;100.00;100420.97;5121894;27;20118;-64
2024/03/06 03:21:27;;;;;;;5.70;1.63;;;;;;;9.01;100.00;100421.94;5128944;27;20035;-65
2024/03/06 03:23:52;;;;;;;4.80;1.73;;;;;;;8.98;100.00;100415.22;5126025;27;20046;-65
2024/03/06 03:26:18;;;;;;;5.88;2.17;;;;;;;8.97;100.00;100419.63;5128476;27;20027;-65
2024/03/06 03:28:43;;;;;;;7.32;2.10;;;;;;;8.94;100.00;100412.09;5130250;27;20067;-66
2024/03/06 03:31:10;;;;;;;5.68;2.42;;;;;;;8.90;100.00;100409.91;5124434;27;20023;-66
2024/03/06 03:33:44;;;;;;;6.28;2.40;;;;;;;8.87;100.00;100408.41;5128316;27;20031;-65
2024/03/06 03:36:10;;;;;;;5.20;2.67;;;;;;;8.85;100.00;100414.69;5129899;27;20031;-65
2024/03/06 03:38:38;;;;;;;7.47;3.22;;;;;;;8.83;100.00;100417.41;5129446;27;20134;-65
2024/03/06 03:41:08;;;;;;;7.00;2.60;;;;;;;8.84;100.00;100413.88;5127367;27;20027;-65
2024/03/06 03:43:33;;;;;;;4.22;2.10;;;;;;;8.85;100.00;100414.69;5127494;27;20405;-65
2024/03/06 03:45:59;;;;;;;5.53;2.70;;;;;;;8.87;100.00;100412.78;5111555;27;20130;-65
2024/03/06 03:48:24;;;;;;;4.28;2.00;;;;;;;8.88;100.00;100417.84;5127312;27;20111;-65
2024/03/06 03:50:50;;;;;;;5.82;2.60;;;;;;;8.91;100.00;100420.16;5128991;27;20019;-65
2024/03/06 03:53:15;;;;;;;5.78;2.65;;;;;;;8.93;100.00;100422.63;5127571;27;20106;-65
2024/03/06 03:55:41;;;;;;;4.30;2.10;;;;;;;8.95;100.00;100426.75;5132572;27;20096;-64
2024/03/06 03:58:07;;;;;;;6.35;2.85;;;;;;;8.96;100.00;100433.59;5130608;27;20584;-65
2024/03/06 04:00:33;;;;;;;7.60;2.50;;;;;;;8.97;100.00;100440.41;5132384;27;20035;-65
2024/03/06 04:02:58;;;;;;;6.85;3.45;;;;;;;9.00;100.00;100441.91;5129509;27;20389;-65
2024/03/06 04:05:24;;;;;;;4.35;2.08;;;;;;;9.02;100.00;100449.56;5134685;27;20038;-65
2024/03/06 04:07:50;;;;;;;7.78;2.72;;;;;;;8.99;100.00;100455.84;5131354;27;20432;-65
2024/03/06 04:10:16;;;;;;;9.77;3.08;;;;;;;8.98;100.00;100452.44;5130404;27;20043;-65
2024/03/06 04:12:41;;;;;;;5.50;2.42;;;;;;;8.97;100.00;100463.81;5130583;27;20097;-65
2024/03/06 04:15:07;;;;;;;5.82;2.80;;;;;;;8.98;100.00;100460.22;5128546;27;20531;-65
2024/03/06 04:17:35;;;;;;;6.80;2.60;;;;;;;8.98;100.00;100457.63;5129758;27;20509;-64
2024/03/06 04:20:00;;;;;;;6.13;2.35;;;;;;;8.96;100.00;100459.56;5128860;27;20035;-65
2024/03/06 04:22:26;;;;;;;9.02;2.92;;;;;;;8.94;100.00;100451.09;5127052;27;20046;-65
2024/03/06 04:24:51;;;;;;;4.25;1.88;;;;;;;8.88;100.00;100453.38;5127762;27;20462;-65
2024/03/06 04:27:17;;;;;;;9.80;2.55;;;;;;;8.84;100.00;100454.63;5126675;27;20119;-65
2024/03/06 04:29:42;;;;;;;10.50;2.50;;;;;;;8.80;100.00;100454.06;5128227;27;20038;-65
2024/03/06 04:32:08;;;;;;;7.07;3.00;;;;;;;8.80;100.00;100448.84;5127201;27;20453;-65
2024/03/06 04:34:34;;;;;;;4.47;2.05;;;;;;;8.79;100.00;100447.22;5129158;27;20588;-65
2024/03/06 04:37:01;;;;;;;7.45;2.97;;;;;;;8.78;100.00;100445.56;5126033;27;20046;-64
2024/03/06 04:39:26;;;;;;;6.38;3.03;;;;;;;8.78;100.00;100450.75;5130386;27;20039;-65
2024/03/06 04:41:51;;;;;;;8.25;2.85;;;;;;;8.79;100.00;100452.41;5130663;27;20030;-65
2024/03/06 04:44:17;;;;;;;6.32;2.83;;;;;;;8.81;100.00;100450.50;5127949;27;20030;-65
2024/03/06 04:46:42;;;;;;;7.18;2.83;;;;;;;8.80;100.00;100454.06;5125288;27;20529;-65
2024/03/06 04:49:08;;;;;;;7.07;3.35;;;;;;;8.79;100.00;100455.00;5126604;27;20028;-65
2024/03/06 04:51:33;;;;;;;5.95;2.92;;;;;;;8.81;100.00;100450.50;5129627;27;20031;-65
2024/03/06 04:53:59;;;;;;;7.18;3.80;;;;;;;8.84;100.00;100458.03;5125858;27;20580;-65
2024/03/06 04:56:24;;;;;;;10.50;3.25;;;;;;;8.88;100.00;100451.63;5126290;27;20027;-65
2024/03/06 04:58:51;;;;;;;7.25;3.67;;;;;;;8.89;100.00;100447.25;5124888;27;20062;-65
2024/03/06 05:01:17;;;;;;;5.93;2.65;;;;;;;8.92;100.00;100458.19;5129005;27;20035;-65
2024/03/06 05:03:42;;;;;;;11.60;3.45;;;;;;;8.94;100.00;100458.06;5128738;27;20027;-65
2024/03/06 05:06:07;;;;;;;6.22;3.13;;;;;;;8.96;100.00;100463.94;5131685;27;20034;-65
2024/03/06 05:08:33;;;;;;;6.00;3.53;;;;;;;8.97;100.00;100469.00;5127522;27;20030;-65
2024/03/06 05:11:02;;;;;;;6.50;2.72;;;;;;;8.98;100.00;100473.22;5128467;27;20042;-65
2024/03/06 05:13:27;;;;;;;7.60;2.90;;;;;;;8.99;100.00;100474.84;5119843;27;20066;-65
2024/03/06 05:15:54;;;;;;;7.28;2.95;;;;;;;9.02;100.00;100485.94;5124910;27;20059;-65
2024/03/06 05:18:20;;;;;;;8.85;3.38;;;;;;;9.01;100.00;100490.31;5128502;27;20043;-65
2024/03/06 05:20:46;;;;;;;8.65;3.63;;;;;;;9.01;100.00;100500.72;5132815;27;20039;-64
2024/03/06 05:23:12;;;;;;;8.55;3.17;;;;;;;9.02;100.00;100501.53;5127329;27;20027;-65
2024/03/06 05:25:38;;;;;;;5.57;3.08;;;;;;;9.03;100.00;100516.19;5130037;27;20389;-64
2024/03/06 05:28:04;;;;;;;8.75;3.53;;;;;;;9.02;100.00;100520.56;5127953;27;20118;-65
2024/03/06 05:30:30;;;;;;;7.68;3.63;;;;;;;9.02;100.00;100530.94;5127105;27;20023;-65
2024/03/06 05:32:56;;;;;;;12.98;3.58;;;;;;;8.99;100.00;100529.44;5127410;27;20501;-64
2024/03/06 05:35:21;;;;;;;10.68;3.63;;;;;;;9.01;100.00;100528.47;5126598;27;20388;-63
2024/03/06 05:37:47;;;;;;;12.57;3.92;;;;;;;8.98;100.00;100535.59;5129729;27;20079;-64
2024/03/06 05:40:13;;;;;;;11.50;4.18;;;;;;;8.94;100.00;100536.84;5129067;27;20023;-64
2024/03/06 05:42:38;;;;;;;7.53;3.97;;;;;;;8.91;100.00;100531.91;5110789;27;20091;-64
2024/03/06 05:45:10;;;;;;;8.85;4.28;;;;;;;8.86;100.00;100539.25;5128991;27;20029;-64
2024/03/06 05:47:38;;;;;;;7.90;4.03;;;;;;;8.80;100.00;100547.56;5129690;27;20119;-63
2024/03/06 05:50:05;;;;;;;14.07;5.35;;;;;;;8.81;100.00;100544.03;5127011;27;20093;-64
2024/03/06 05:52:31;;;;;;;10.13;5.10;;;;;;;8.81;100.00;100549.22;5109822;27;20061;-64
2024/03/06 05:54:57;;;;;;;18.23;5.13;;;;;;;8.81;100.00;100549.22;5129455;27;20427;-63
2024/03/06 05:57:22;;;;;;;12.15;5.75;;;;;;;8.79;100.00;100555.50;5126770;27;20019;-64
2024/03/06 05:59:48;;;;;;;16.30;5.55;;;;;;;8.76;100.00;100556.59;5126054;27;20027;-64
2024/03/06 06:02:16;;;;;;;14.30;5.60;;;;;;;8.76;100.00;100566.97;5125452;27;20038;-64
2024/03/06 06:04:41;;;;;;;10.68;5.18;;;;;;;8.76;100.00;100555.75;5129247;27;20023;-63
2024/03/06 06:07:07;;;;;;;8.40;4.85;;;;;;;8.75;100.00;100562.72;5121948;27;20513;-64
2024/03/06 06:09:33;;;;;;;12.18;4.85;;;;;;;8.75;100.00;100565.34;5128799;27;20027;-64
2024/03/06 06:11:59;;;;;;;15.13;6.50;;;;;;;8.76;100.00;100566.16;5128420;27;20058;-63
2024/03/06 06:14:26;;;;;;;13.10;5.40;;;;;;;8.75;100.00;100562.72;5128760;27;20420;-63
2024/03/06 06:16:52;;;;;;;21.45;5.65;;;;;;;8.76;100.00;100571.34;5126625;27;20020;-64
2024/03/06 06:19:18;;;;;;;12.57;5.38;;;;;;;8.77;100.00;100567.78;5128730;27;20038;-64
2024/03/06 06:21:43;;;;;;;18.10;5.50;;;;;;;8.78;100.00;100569.44;5128799;27;20058;-64
2024/03/06 06:24:09;;;;;;;16.00;5.72;;;;;;;8.81;100.00;100580.41;5131233;27;20063;-63
2024/03/06 06:26:34;;;;;;;15.55;5.30;;;;;;;8.86;100.00;100585.22;5133887;27;20043;-64
2024/03/06 06:29:00;;;;;;;16.85;5.40;;;;;;;8.90;100.00;100595.22;5131046;27;20023;-64
2024/03/06 06:31:26;;;;;;;18.20;5.20;;;;;;;8.92;100.00;100593.31;5132358;27;20037;-64
2024/03/06 06:33:52;;;;;;;13.57;4.80;;;;;;;8.94;100.00;100600.97;5131028;27;20821;-64
2024/03/06 06:36:19;;;;;;;16.05;5.47;;;;;;;8.94;100.00;100608.78;5127116;27;20023;-64
2024/03/06 06:38:44;;;;;;;12.15;5.07;;;;;;;8.97;100.00;100606.72;5132754;27;20158;-64
2024/03/06 06:41:10;;;;;;;9.07;4.82;;;;;;;8.96;100.00;100605.09;5132792;27;20509;-64
2024/03/06 06:43:36;;;;;;;12.18;4.78;;;;;;;8.95;100.00;100608.63;5122851;27;20530;-64
2024/03/06 06:46:04;;;;;;;15.45;5.13;;;;;;;8.96;100.00;100605.09;5131949;27;20122;-63
2024/03/06 06:48:30;;;;;;;10.13;5.22;;;;;;;8.95;100.00;100606.03;5131276;27;20442;-63
2024/03/06 06:50:55;;;;;;;10.82;4.85;;;;;;;8.93;100.00;100607.94;5133309;27;20075;-63
2024/03/06 06:53:21;;;;;;;11.00;5.78;;;;;;;8.83;100.00;100607.06;5128004;27;20030;-64
2024/03/06 06:55:46;;;;;;;15.10;5.43;;;;;;;8.78;100.00;100601.44;5132284;27;20117;-63
2024/03/06 06:58:11;;;;;;;12.02;5.22;;;;;;;8.77;100.00;100597.19;5130352;27;20057;-63
2024/03/06 07:00:37;;;;;;;10.55;4.57;;;;;;;8.69;100.00;100601.38;5111590;27;20049;-63
2024/03/06 07:03:03;;;;;;;9.20;4.40;;;;;;;8.66;100.00;100602.47;5129437;27;20023;-63
2024/03/06 07:05:28;;;;;;;9.48;5.00;;;;;;;8.68;100.00;100587.59;5128311;27;20043;-64
2024/03/06 07:07:54;;;;;;;10.80;4.63;;;;;;;8.68;100.00;100595.38;5131235;27;20378;-63
2024/03/06 07:10:19;;;;;;;13.80;5.18;;;;;;;8.64;100.00;100588.78;5131173;27;20059;-63
2024/03/06 07:12:45;;;;;;;8.82;4.95;;;;;;;8.57;100.00;100582.47;5131304;27;20039;-63
2024/03/06 07:15:11;;;;;;;15.57;6.00;;;;;;;8.56;100.00;100581.63;5132939;27;20034;-64
2024/03/06 07:17:36;;;;;;;16.92;5.85;;;;;;;8.54;100.00;100582.72;5130963;27;20038;-64
2024/03/06 07:20:05;;;;;;;11.25;5.15;;;;;;;8.54;100.00;100577.53;5132563;27;20031;-63
2024/03/06 07:22:31;;;;;;;18.95;5.45;;;;;;;8.53;100.00;100581.06;5132303;27;20093;-63
2024/03/06 07:24:56;;;;;;;13.50;4.80;;;;;;;8.53;100.00;100575.88;5120987;27;20034;-64
2024/03/06 07:27:22;;;;;;;8.18;4.10;;;;;;;8.52;100.00;100577.66;5130415;27;20035;-64
2024/03/06 07:29:47;;;;;;;9.63;4.40;;;;;;;8.49;100.00;100575.34;5131490;27;20054;-65
2024/03/06 07:32:13;;;;;;;7.38;2.78;;;;;;;8.48;100.00;100578.06;5132772;27;20443;-65
2024/03/06 07:34:38;;;;;;;12.32;3.67;;;;;;;8.51;100.00;100575.19;5126932;27;20114;-65
2024/03/06 07:37:04;;;;;;;4.97;3.63;;;;;;;8.50;100.00;100578.75;5127616;27;20117;-64
2024/03/06 07:39:31;;;;;;;8.20;4.05;;;;;;;8.48;100.00;100578.06;5128490;27;20110;-65
2024/03/06 07:41:56;;;;;;;9.20;3.47;;;;;;;8.51;100.00;100582.97;5129468;27;20050;-65
2024/03/06 07:44:22;;;;;;;7.68;2.45;;;;;;;8.49;100.00;100590.91;5125650;27;20023;-64
2024/03/06 07:46:48;;;;;;;10.90;4.07;;;;;;;8.46;100.00;100593.75;5130972;27;20486;-73
2024/03/06 07:49:14;;;;;;;5.80;2.92;;;;;;;8.42;100.00;100599.34;5130448;27;20031;-68
2024/03/06 07:51:40;;;;;;;1.83;0.70;;;;;;;8.28;100.00;100590.06;5127719;27;20023;-68
2024/03/06 07:54:06;;;;;;;3.90;0.60;;;;;;;8.15;100.00;100600.63;5133942;27;20027;-67
2024/03/06 07:56:31;;;;;;;2.47;0.65;;;;;;;8.10;100.00;100599.34;5132359;27;20083;-68
2024/03/06 07:58:57;;;;;;;3.20;0.68;;;;;;;8.09;100.00;100601.13;5131846;27;20040;-68
2024/03/06 08:01:23;;;;;;;3.15;0.93;;;;;;;8.07;100.00;100607.38;5127652;27;20417;-68
2024/03/06 08:03:49;;;;;;;1.70;0.52;;;;;;;8.07;100.00;100613.38;5126071;27;20415;-69
2024/03/06 08:06:17;;;;;;;3.67;0.95;;;;;;;8.10;100.00;100615.75;5129535;27;20150;-69
2024/03/06 08:08:44;;;;;;;2.55;0.68;;;;;;;8.12;100.00;100628.59;5130304;27;20038;-68
2024/03/06 08:11:13;;;;;;;4.50;2.40;;;;;;;8.18;100.00;100633.28;5130725;27;20051;-69
2024/03/06 08:13:39;;;;;;;3.13;1.92;;;;;;;8.27;100.00;100641.16;5129904;27;20035;-69
2024/03/06 08:16:05;;;;;;;5.72;1.40;;;;;;;8.35;100.00;100650.13;5130358;27;20118;-64
2024/03/06 08:18:32;;;;;;;7.30;1.70;;;;;;;8.34;100.00;100651.06;5130963;27;20023;-64
2024/03/06 08:20:57;;;;;;;1.75;0.95;;;;;;;8.34;100.00;100649.28;5132440;27;20031;-64
2024/03/06 08:23:23;;;;;;;2.15;1.27;;;;;;;8.28;100.00;100649.75;5130679;27;20023;-64
2024/03/06 08:25:49;;;;;;;3.47;1.50;;;;;;;8.23;100.00;100652.72;5129397;27;20043;-65
2024/03/06 08:28:15;;;;;;;4.70;2.65;;;;;;;8.23;100.00;100655.31;5128026;27;20068;-64
2024/03/06 08:30:41;;;;;;;7.82;2.03;;;;;;;8.26;100.00;100662.03;5131443;27;20034;-65
2024/03/06 08:33:06;;;;;;;7.85;3.45;;;;;;;8.26;100.00;100662.88;5130852;27;20031;-64
2024/03/06 08:35:31;;;;;;;6.10;2.45;;;;;;;8.28;100.00;100666.16;5131534;27;20027;-65
2024/03/06 08:37:57;;;;;;;4.90;2.38;;;;;;;8.28;100.00;100666.16;5131491;27;20478;-64
2024/03/06 08:40:23;;;;;;;3.17;1.40;;;;;;;8.23;100.00;100665.72;5131209;27;20027;-65
2024/03/06 08:42:48;;;;;;;6.05;2.00;;;;;;;8.23;100.00;100672.66;5131414;27;20039;-65
2024/03/06 08:45:14;;;;;;;3.45;1.77;;;;;;;8.23;100.00;100678.69;5130582;27;20039;-65
2024/03/06 08:47:40;;;;;;;4.63;1.55;;;;;;;8.23;100.00;100681.28;5126929;27;20047;-65
2024/03/06 08:50:07;;;;;;;4.50;1.20;;;;;;;8.23;100.00;100683.88;5130172;27;20031;-65
2024/03/06 08:52:36;;;;;;;9.07;1.40;;;;;;;8.15;100.00;100681.06;5130967;27;20045;-64
2024/03/06 08:55:08;;;;;;;5.40;1.13;;;;;;;8.09;100.00;100680.75;5130598;27;20057;-65
2024/03/06 08:57:35;;;;;;;6.95;1.38;;;;;;;8.11;100.00;100690.06;5131127;27;20039;-64
2024/03/06 09:00:00;;;;;;;5.35;1.73;;;;;;;8.10;100.00;100692.75;5130573;27;20027;-64
2024/03/06 09:02:26;;;;;;;9.38;4.40;;;;;;;8.11;100.00;100695.25;5131109;27;20030;-65
2024/03/06 09:04:52;;;;;;;2.90;1.35;;;;;;;8.11;100.00;100699.59;5130964;27;20057;-64
2024/03/06 09:07:18;;;;;;;4.07;2.10;;;;;;;8.15;100.00;100696.66;5130281;27;20509;-64
2024/03/06 09:09:44;;;;;;;3.63;1.27;;;;;;;8.18;100.00;100700.75;5130671;27;20047;-64
2024/03/06 09:12:10;;;;;;;4.78;1.52;;;;;;;8.14;100.00;100702.78;5130070;27;20041;-65
2024/03/06 09:14:38;;;;;;;5.93;1.58;;;;;;;8.16;100.00;100697.47;5130989;27;20043;-64
2024/03/06 09:17:04;;;;;;;6.05;1.20;;;;;;;8.14;100.00;100697.59;5130227;27;20517;-65
2024/03/06 09:19:31;;;;;;;5.65;1.17;;;;;;;8.13;100.00;100697.72;5130828;27;20084;-65
2024/03/06 09:21:57;;;;;;;6.10;1.23;;;;;;;8.05;100.00;100700.91;5130865;27;20031;-66
2024/03/06 09:24:23;;;;;;;2.60;0.70;;;;;;;8.03;100.00;100695.06;5130155;27;20023;-65
2024/03/06 09:26:49;;;;;;;2.28;0.32;;;;;;;7.99;100.00;100696.25;5130621;27;20070;-67
2024/03/06 09:29:15;;;;;;;0.68;0.20;;;;;;;7.91;100.00;100698.63;5130227;27;20478;-64
2024/03/06 09:31:42;;;;;;;0.98;0.35;;;;;;;7.85;100.00;100699.09;5130686;27;20041;-64
2024/03/06 09:34:07;;;;;;;0.95;0.30;;;;;;;7.93;100.00;100718.31;5129928;27;20039;-64
2024/03/06 09:36:33;;;;;;;1.20;0.20;;;;;;;7.80;100.00;100716.78;5130688;27;20031;-64
2024/03/06 09:38:59;;;;;;;3.30;0.52;;;;;;;7.89;100.00;100726.44;5130718;27;20080;-66
2024/03/06 09:41:25;;;;;;;4.45;0.40;;;;;;;8.04;100.00;100708.81;5126564;27;20482;-67
2024/03/06 09:43:50;;;;;;;5.22;2.03;;;;;;;8.04;100.00;100695.84;5130633;27;20114;-67
2024/03/06 09:46:17;;;;;;;2.83;0.82;;;;;;;8.07;100.00;100699.03;5111281;27;20122;-66
2024/03/06 09:48:46;;;;;;;1.65;0.82;;;;;;;8.02;100.00;100700.38;5125417;27;20031;-65
2024/03/06 09:51:12;;;;;;;2.63;0.82;;;;;;;8.10;100.00;100696.19;5129678;27;20030;-66
2024/03/06 09:53:39;;;;;;;1.52;0.30;;;;;;;8.16;100.00;100695.69;5130262;27;20060;-66
2024/03/06 09:56:05;;;;;;;4.35;0.77;;;;;;;8.12;100.00;100691.69;5129978;27;20038;-66
2024/03/06 09:58:34;;;;;;;1.92;0.40;;;;;;;8.15;100.00;100688.84;5134704;27;20138;-65
2024/03/06 10:01:00;;;;;;;1.50;0.60;;;;;;;8.09;100.00;100691.94;5134132;27;20040;-66
2024/03/06 10:03:26;;;;;;;2.40;0.55;;;;;;;8.10;100.00;100682.38;5134764;27;20025;-66
2024/03/06 10:05:52;;;;;;;1.38;0.32;;;;;;;8.15;100.00;100681.06;5134685;27;20046;-65
2024/03/06 10:08:21;;;;;;;2.10;0.30;;;;;;;8.08;100.00;100674.72;5134068;27;20047;-65
2024/03/06 10:10:49;;;;;;;3.10;0.20;;;;;;;8.08;100.00;100679.09;5134218;27;20490;-65
2024/03/06 10:13:17;;;;;;;1.02;0.20;;;;;;;8.04;100.00;100668.13;5115477;27;20376;-65
2024/03/06 10:15:55;;;;;;;0.25;0.10;;;;;;;8.11;100.00;100674.47;5137679;27;20038;-66
2024/03/06 10:18:20;;;;;;;0.38;0.10;;;;;;;8.08;100.00;100672.13;5134140;27;20038;-66
2024/03/06 10:20:47;;;;;;;0.25;0.10;;;;;;;8.08;100.00;100669.53;5134336;27;20043;-66
2024/03/06 10:23:12;;;;;;;0.20;0.10;;;;;;;8.08;100.00;100674.72;5133771;27;20065;-66
2024/03/06 10:25:38;;;;;;;0.52;0.10;;;;;;;8.06;100.00;100671.44;5134144;27;20060;-66
2024/03/06 10:28:03;;;;;;;0.60;0.20;;;;;;;8.10;100.00;100675.44;5133773;27;20107;-66
2024/03/06 10:30:29;;;;;;;0.47;0.10;;;;;;;8.12;100.00;100670.94;5134383;27;20026;-65
2024/03/06 10:32:54;;;;;;;0.28;0.10;;;;;;;8.20;100.00;100675.50;5133968;27;20027;-66
2024/03/06 10:35:20;;;;;;;0.68;0.10;;;;;;;8.25;100.00;100676.78;5133470;27;20027;-66
2024/03/06 10:37:46;;;;;;;0.45;0.10;;;;;;;8.21;100.00;100675.38;5133998;27;20130;-65
2024/03/06 10:40:15;;;;;;;1.40;0.10;;;;;;;8.21;100.00;100670.19;5133419;27;20126;-66
2024/03/06 10:42:42;;;;;;;0.30;0.08;;;;;;;8.34;100.00;100669.25;5133486;27;20074;-65
2024/03/06 10:45:12;;;;;;;0.68;0.03;;;;;;;8.42;100.00;100667.66;5133296;27;20043;-66
2024/03/06 10:47:40;;;;;;;0.50;0.10;;;;;;;8.45;100.00;100666.59;5128358;27;20038;-66
2024/03/06 10:50:10;;;;;;;1.10;0.10;;;;;;;8.45;100.00;100672.63;5133109;27;20203;-65
2024/03/06 10:52:38;;;;;;;0.20;0.08;;;;;;;8.56;100.00;100679.50;5133472;27;20027;-65
2024/03/06 10:55:04;;;;;;;0.68;0.10;;;;;;;8.71;100.00;100665.25;5133240;27;20426;-65
2024/03/06 10:57:30;;;;;;;1.30;0.17;;;;;;;8.82;100.00;100669.56;5133748;27;20130;-65
2024/03/06 11:00:01;;;;;;;0.93;0.20;;;;;;;8.81;100.00;100663.53;5133609;27;20507;-65
2024/03/06 11:02:27;;;;;;;0.70;0.10;;;;;;;9.05;100.00;100668.44;5133563;27;20023;-66
2024/03/06 11:04:53;;;;;;;0.40;0.10;;;;;;;9.26;100.00;100677.03;5133473;27;20081;-66
2024/03/06 11:07:20;;;;;;;0.20;0.10;;;;;;;9.29;100.00;100668.13;5132703;27;21666;-66
2024/03/06 11:09:48;;;;;;;0.30;0.00;;;;;;;9.39;100.00;100675.97;5131919;27;20128;-65
2024/03/06 11:12:32;;;;;;;0.75;0.10;;;;;;;9.43;100.00;100682.56;5132625;27;20117;-66
2024/03/06 11:14:58;;;;;;;2.75;0.20;;;;;;;9.51;100.00;100680.91;5129786;27;20514;-65
2024/03/06 11:17:25;;;;;;;1.20;0.20;;;;;;;9.61;100.00;100676.56;5132826;27;20023;-66
2024/03/06 11:20:00;;;;;;;0.80;0.20;;;;;;;9.68;100.00;100678.66;5133255;27;20481;-65